Data for 10/26/2010

Time Sea-Level Adjusted Pressure Absolute Pressure Temperature Relative Humidity Dew Point Precipitation   
(mb) (inHg) (mb) (inHg) (C) (F) (%) (C) (F) (mm) (in)
12:27 1010 29.83 839 24.78 4.6 40.2 44 -6.6 20.1 4.972 0.196
12:28 1010 29.83 839 24.78 4.6 40.3 44 -6.8 19.8 4.972 0.196
12:29 1010 29.83 839 24.78 4.5 40.2 42 -7.4 18.6 4.938 0.194
12:30 1010 29.83 839 24.78 4.6 40.3 41 -7.7 18.2 5.017 0.198
12:31 1010 29.83 839 24.78 4.9 40.8 39 -7.9 17.7 5.244 0.206
12:32 1010 29.83 839 24.78 4.9 40.8 41 -7.2 19 5.278 0.208
12:33 1010 29.83 839 24.78 4.8 40.6 41 -7.2 19 5.153 0.203
12:34 1010 29.83 839 24.78 4.6 40.2 44 -6.6 20.1 4.955 0.195
12:35 1010 29.83 839 24.78 4.3 39.8 41 -7.9 17.8 4.727 0.186
12:36 1010 29.83 839 24.78 4.1 39.4 40 -8.4 16.9 4.512 0.178
12:37 1010 29.83 839 24.78 4.2 39.5 44 -7.1 19.2 4.591 0.181
12:38 1010 29.83 839 24.78 4.5 40.2 41 -7.7 18.2 4.987 0.196
12:39 1010 29.83 839 24.78 4.9 40.8 40 -7.7 18.1 5.275 0.208
12:40 1010 29.83 839 24.78 5 41 42 -6.9 19.5 5.421 0.213
12:41 1010 29.83 839 24.78 4.9 40.8 41 -7.3 18.8 5.279 0.208
12:42 1010 29.83 839 24.78 4.8 40.6 41 -7.4 18.7 5.165 0.203
12:43 1010 29.83 839 24.78 4.7 40.5 40 -7.9 17.7 5.142 0.202
12:44 1010 29.83 839 24.78 4.5 40.1 39 -8.2 17.2 4.937 0.194
12:45 1010 29.83 839 24.78 4.4 39.9 39 -8.5 16.7 4.841 0.191
12:46 1010 29.83 839 24.78 4.4 40 41 -7.6 18.3 4.862 0.191
12:47 1010 29.83 839 24.78 4.6 40.3 39 -8.3 17 5.032 0.198
12:48 1010 29.83 839 24.78 4.5 40.2 38 -8.5 16.6 4.919 0.194
12:49 1010 29.83 839 24.78 4.4 40 41 -7.8 18 4.861 0.191
12:50 1010 29.83 839 24.78 4.4 39.9 43 -7.3 18.9 4.827 0.19
12:51 1010 29.83 839 24.78 4.4 39.8 41 -7.8 17.9 4.77 0.188
12:52 1010 29.83 839 24.78 4.2 39.6 42 -7.5 18.6 4.622 0.182
12:53 1010 29.83 839 24.78 4.3 39.7 41 -7.8 18 4.701 0.185
12:54 1010 29.83 839 24.78 4.6 40.4 40 -8 17.7 5.12 0.202
12:55 1010 29.83 839 24.78 4.9 40.8 40 -7.6 18.4 5.323 0.21
12:56 1010 29.83 839 24.78 5 40.9 39 -7.9 17.8 5.408 0.213
12:57 1010 29.83 839 24.78 5 41.1 39 -7.7 18.1 5.447 0.214
12:58 1010 29.83 839 24.78 5.1 41.1 39 -7.7 18.1 5.532 0.218
12:59 1010 29.83 839 24.78 4.9 40.8 40 -7.6 18.3 5.3 0.209
13:00 1010 29.83 839 24.78 4.6 40.3 38 -8.4 16.9 5.028 0.198
13:01 1010 29.83 839 24.78 4.3 39.7 39 -8.6 16.6 4.739 0.187
13:02 1010 29.83 839 24.78 4.1 39.3 42 -7.7 18.2 4.479 0.176
13:03 1010 29.83 839 24.78 3.9 38.9 37 -9.4 15.1 4.292 0.169
13:04 1010 29.83 839 24.78 3.8 38.8 39 -8.9 15.9 4.184 0.165
13:05 1010 29.83 839 24.78 3.9 38.9 39 -8.9 16 4.291 0.169
13:06 1010 29.83 839 24.78 4 39.2 39 -8.6 16.5 4.45 0.175
13:07 1010 29.83 839 24.78 3.9 39.1 40 -8.5 16.7 4.348 0.171
13:08 1010 29.83 839 24.78 3.9 38.9 40 -8.4 16.9 4.291 0.169
13:09 1010 29.83 839 24.78 4 39.2 40 -8.4 16.8 4.432 0.174
13:10 1010 29.83 839 24.78 4.2 39.6 40 -8.2 17.2 4.63 0.182
13:11 1010 29.83 839 24.78 4.5 40 42 -7.5 18.6 4.925 0.194
13:12 1010 29.83 839 24.78 4.8 40.6 40 -7.7 18.2 5.225 0.206
13:13 1010 29.83 839 24.78 5 41.1 38 -8 17.7 5.479 0.216
13:14 1010 29.83 839 24.78 5.2 41.4 37 -8.3 17.1 5.643 0.222
13:15 1010 29.83 839 24.78 5.4 41.7 42 -6.6 20.1 5.812 0.229
13:16 1010 29.83 839 24.78 5.6 42.1 37 -8.1 17.5 6.049 0.238
13:17 1010 29.83 839 24.78 5.8 42.4 39 -7 19.4 6.19 0.244
13:18 1010 29.83 839 24.78 6 42.8 36 -8.1 17.4 6.411 0.252
13:19 1010 29.83 839 24.78 5.6 42.1 34 -9 15.8 5.997 0.236
13:20 1010 29.83 839 24.78 5.1 41.2 37 -8.5 16.7 5.55 0.219
13:21 1010 29.83 839 24.78 4.9 40.8 38 -8.2 17.2 5.277 0.208
13:22 1010 29.83 839 24.78 4.6 40.3 36 -9.3 15.3 4.994 0.197
13:23 1010 29.83 839 24.78 4.3 39.7 37 -9.2 15.4 4.739 0.187
13:24 1010 29.83 839 24.78 4.1 39.5 37 -9.2 15.5 4.552 0.179
13:25 1010 29.83 839 24.78 4.1 39.3 39 -8.7 16.4 4.518 0.178
13:26 1010 29.83 839 24.78 4.1 39.3 39 -8.7 16.4 4.472 0.176
13:27 1010 29.83 839 24.78 4 39.3 39 -8.5 16.6 4.443 0.175
13:28 1010 29.83 839 24.78 4.1 39.3 39 -8.7 16.3 4.459 0.176
13:29 1010 29.83 839 24.78 4.1 39.3 42 -7.9 17.8 4.476 0.176
13:30 1010 29.83 839 24.78 4.1 39.4 41 -8 17.6 4.543 0.179
13:31 1010 29.83 839 24.78 4.1 39.4 43 -7.2 19 4.565 0.18
13:32 1010 29.83 839 24.78 4.2 39.5 40 -8.3 17.1 4.593 0.181
13:33 1010 29.83 839 24.78 4.2 39.6 38 -8.8 16.2 4.603 0.181
13:34 1010 29.83 839 24.78 4.2 39.5 40 -8.4 16.9 4.58 0.18
13:35 1010 29.83 839 24.78 4.1 39.4 40 -8.2 17.2 4.58 0.18
13:36 1010 29.83 839 24.78 4.2 39.5 39 -8.5 16.7 4.585 0.181
13:37 1010 29.83 839 24.78 4.2 39.5 40 -8.3 17 4.602 0.181
13:38 1010 29.83 839 24.78 4.2 39.5 37 -9.1 15.6 4.579 0.18
13:39 1010 29.83 839 24.78 4.2 39.5 41 -8.1 17.4 4.595 0.181
13:40 1010 29.83 839 24.78 4.2 39.6 37 -9.3 15.3 4.635 0.182
13:41 1010 29.83 839 24.78 4.2 39.6 38 -8.8 16.2 4.618 0.182
13:42 1010 29.83 839 24.78 4.2 39.6 35 -9.9 14.2 4.645 0.183
13:43 1010 29.83 839 24.78 4.2 39.5 37 -9.3 15.3 4.6 0.181
13:44 1010 29.83 839 24.78 4.2 39.5 37 -9.4 15.2 4.594 0.181
13:45 1010 29.83 839 24.78 4.1 39.4 38 -8.9 16 4.543 0.179
13:46 1010 29.83 839 24.78 4.1 39.4 39 -8.5 16.6 4.503 0.177
13:47 1010 29.83 839 24.78 4.1 39.3 37 -9.5 14.9 4.503 0.177
13:48 1010 29.83 839 24.78 4 39.1 39 -8.9 16 4.356 0.171
13:49 1010 29.83 839 24.78 3.9 38.9 38 -9.2 15.4 4.248 0.167
13:50 1010 29.83 839 24.78 3.8 38.8 38 -9.1 15.5 4.237 0.167
13:51 1010 29.83 839 24.78 3.8 38.8 41 -8.4 17 4.242 0.167
13:52 1010 29.83 839 24.78 3.8 38.9 41 -8.1 17.4 4.271 0.168
13:53 1010 29.83 839 24.78 3.9 38.9 40 -8.5 16.7 4.282 0.169
13:54 1010 29.83 839 24.78 3.8 38.8 43 -7.6 18.3 4.225 0.166
13:55 1010 29.83 839 24.78 3.8 38.9 41 -8.3 17 4.248 0.167
13:56 1010 29.83 839 24.78 3.8 38.8 39 -8.8 16.1 4.185 0.165
13:57 1010 29.83 839 24.78 3.7 38.6 41 -8.4 16.8 4.106 0.162
13:58 1010 29.83 839 24.78 3.6 38.5 39 -9.1 15.7 4.027 0.159
13:59 1010 29.83 839 24.78 3.6 38.4 41 -8.5 16.6 3.97 0.156
14:00 1010 29.83 840 24.81 3.5 38.3 43 -7.8 17.9 3.959 0.156
14:01 1010 29.83 840 24.81 3.5 38.3 44 -7.6 18.3 3.93 0.155
14:02 1010 29.83 840 24.81 3.5 38.3 44 -7.5 18.5 3.919 0.154
14:03 1010 29.83 840 24.81 3.5 38.3 45 -7.5 18.5 3.891 0.153
14:04 1010 29.83 840 24.81 3.4 38.1 47 -6.9 19.6 3.8 0.15
14:05 1010 29.83 840 24.81 3.3 37.9 48 -6.8 19.7 3.67 0.144
14:06 1010 29.83 840 24.81 3.1 37.6 47 -7 19.3 3.534 0.139
14:07 1010 29.83 840 24.81 3 37.5 50 -6.4 20.5 3.461 0.136
14:08 1010 29.83 840 24.81 3 37.4 49 -6.6 20.2 3.432 0.135
14:09 1010 29.83 840 24.81 3 37.4 49 -6.7 20 3.404 0.134
14:10 1010 29.83 840 24.81 2.9 37.3 48 -6.9 19.5 3.279 0.129
14:11 1010 29.83 840 24.81 2.8 37.1 49 -6.9 19.6 3.251 0.128
14:12 1010 29.83 840 24.81 2.8 37 49 -6.8 19.7 3.177 0.125
14:13 1010 29.83 840 24.81 2.7 36.9 51 -6.5 20.3 3.132 0.123
14:14 1010 29.83 840 24.81 2.7 36.9 50 -6.7 19.9 3.143 0.124
14:15 1010 29.83 840 24.81 2.7 36.9 50 -6.8 19.8 3.098 0.122
14:16 1010 29.83 840 24.81 2.7 36.8 50 -6.7 19.9 3.104 0.122
14:17 1010 29.83 840 24.81 2.7 36.8 50 -6.9 19.7 3.064 0.121
14:18 1010 29.83 840 24.81 2.6 36.7 52 -6.3 20.7 3.025 0.119
14:19 1010 29.83 840 24.81 2.5 36.6 53 -6.2 20.9 2.945 0.116
14:20 1010 29.83 840 24.81 2.5 36.5 53 -6.1 21.1 2.901 0.114
14:21 1010 29.83 840 24.81 2.5 36.5 51 -6.8 19.8 2.862 0.113
14:22 1010 29.83 840 24.81 2.5 36.5 50 -6.9 19.6 2.834 0.112
14:23 1010 29.83 840 24.81 2.5 36.5 50 -6.9 19.6 2.874 0.113
14:24 1010 29.83 840 24.81 2.5 36.4 51 -6.7 20 2.84 0.112
14:25 1010 29.83 840 24.81 2.5 36.4 50 -6.9 19.5 2.863 0.113
14:26 1011 29.85 840 24.81 2.4 36.3 51 -6.7 19.9 2.864 0.113
14:27 1011 29.85 840 24.81 2.5 36.4 49 -7.2 19 2.881 0.113
14:28 1011 29.85 840 24.81 2.5 36.4 51 -6.6 20.2 2.875 0.113
14:29 1011 29.85 840 24.81 2.4 36.4 52 -6.4 20.4 2.853 0.112
14:30 1011 29.85 840 24.81 2.4 36.2 52 -6.6 20 2.786 0.11
14:31 1011 29.85 840 24.81 2.3 36.2 53 -6.2 20.9 2.763 0.109
14:32 1011 29.85 840 24.81 2.3 36.2 53 -6.3 20.6 2.769 0.109
14:33 1011 29.85 840 24.81 2.3 36.2 53 -6.4 20.6 2.78 0.109
14:34 1011 29.85 840 24.81 2.3 36.1 53 -6.4 20.5 2.701 0.106
14:35 1011 29.85 840 24.81 2.2 36 53 -6.3 20.7 2.645 0.104
14:36 1011 29.85 840 24.81 2.3 36.1 53 -6.4 20.5 2.673 0.105
14:37 1011 29.85 840 24.81 2.2 36 54 -6.2 20.9 2.685 0.106
14:38 1011 29.85 840 24.81 2.3 36.1 53 -6.4 20.5 2.713 0.107
14:39 1011 29.85 840 24.81 2.3 36.2 53 -6.4 20.6 2.691 0.106
14:40 1011 29.85 840 24.81 2.3 36.1 55 -5.8 21.6 2.685 0.106
14:41 1011 29.85 840 24.81 2.2 36 56 -5.6 22 2.64 0.104
14:42 1011 29.85 840 24.81 2 35.6 57 -5.6 21.9 2.425 0.095
14:43 1011 29.85 840 24.81 1.8 35.2 60 -5.3 22.5 2.176 0.086
14:44 1011 29.85 840 24.81 1.6 34.9 62 -5 23 2.018 0.079
14:45 1011 29.85 840 24.81 1.5 34.6 62 -5 23.1 1.91 0.075
14:46 1011 29.85 840 24.81 1.4 34.6 59 -5.6 21.9 1.871 0.074
14:47 1011 29.85 840 24.81 1.4 34.6 60 -5.6 22 1.882 0.074
14:48 1011 29.85 840 24.81 1.5 34.7 60 -5.3 22.4 1.888 0.074
14:49 1011 29.85 840 24.81 1.5 34.8 55 -6.6 20.1 1.979 0.078
14:50 1011 29.85 840 24.81 1.6 34.9 56 -6.1 21 2.071 0.082
14:51 1011 29.85 840 24.81 1.8 35.2 57 -5.9 21.3 2.229 0.088
14:52 1011 29.85 840 24.81 1.8 35.3 54 -6.4 20.4 2.264 0.089
14:53 1011 29.85 840 24.81 1.9 35.5 55 -6.1 21 2.355 0.093
14:54 1011 29.85 840 24.81 2 35.6 57 -5.5 22 2.423 0.095
14:55 1011 29.85 840 24.81 2 35.7 54 -6.3 20.7 2.474 0.097
14:56 1011 29.85 840 24.81 2.1 35.7 54 -6.3 20.6 2.48 0.098
14:57 1011 29.85 840 24.81 2.1 35.7 56 -5.9 21.4 2.503 0.099
14:58 1011 29.85 840 24.81 2.1 35.8 55 -6 21.2 2.504 0.099
14:59 1011 29.85 840 24.81 2 35.7 55 -6 21.2 2.459 0.097
15:00 1011 29.85 840 24.81 2 35.7 55 -6 21.3 2.459 0.097
15:01 1011 29.85 840 24.81 2.1 35.7 55 -6 21.2 2.476 0.097
15:02 1011 29.85 840 24.81 2.1 35.8 56 -5.8 21.6 2.51 0.099
15:03 1011 29.85 840 24.81 2.1 35.9 54 -6.2 20.8 2.584 0.102
15:04 1011 29.85 840 24.81 2.3 36.1 53 -6.4 20.5 2.709 0.107
15:05 1011 29.85 840 24.81 2.3 36.2 53 -6.4 20.5 2.743 0.108
15:06 1011 29.85 840 24.81 2.4 36.2 53 -6.3 20.6 2.799 0.11
15:07 1011 29.85 840 24.81 2.4 36.3 52 -6.4 20.5 2.794 0.11
15:08 1011 29.85 840 24.81 2.4 36.3 54 -6.1 21.1 2.851 0.112
15:09 1011 29.85 840 24.81 2.5 36.4 52 -6.5 20.4 2.879 0.113
15:10 1011 29.85 840 24.81 2.5 36.5 51 -6.6 20.1 2.919 0.115
15:11 1011 29.85 840 24.81 2.5 36.5 50 -6.8 19.7 2.941 0.116
15:12 1011 29.85 840 24.81 2.5 36.6 50 -6.8 19.7 2.97 0.117
15:13 1011 29.85 840 24.81 2.6 36.6 51 -6.6 20.2 3.01 0.119
15:14 1011 29.85 840 24.81 2.6 36.8 52 -6.3 20.6 3.044 0.12
15:15 1011 29.85 840 24.81 2.7 36.9 51 -6.4 20.4 3.157 0.124
15:16 1011 29.85 840 24.81 2.7 36.9 50 -6.6 20.2 3.151 0.124
15:17 1011 29.85 840 24.81 2.8 37 51 -6.3 20.6 3.157 0.124
15:18 1011 29.85 840 24.81 2.8 37 50 -6.6 20.1 3.197 0.126
15:19 1011 29.85 840 24.81 2.8 37 49 -6.9 19.6 3.191 0.126
15:20 1011 29.85 840 24.81 2.8 37 50 -6.7 19.9 3.202 0.126
15:21 1011 29.85 840 24.81 2.8 37 46 -7.6 18.3 3.169 0.125
15:22 1011 29.85 840 24.81 2.8 37 48 -7.2 19.1 3.152 0.124
15:23 1011 29.85 840 24.81 2.8 37 50 -6.7 19.9 3.203 0.126
15:24 1011 29.85 840 24.81 2.9 37.2 48 -7 19.3 3.271 0.129
15:25 1011 29.85 840 24.81 2.9 37.2 49 -6.9 19.6 3.333 0.131
15:26 1011 29.85 840 24.81 3 37.3 49 -6.9 19.7 3.395 0.134
15:27 1011 29.85 840 24.81 3 37.5 51 -6.1 21.1 3.446 0.136
15:28 1011 29.85 840 24.81 3.1 37.6 47 -7 19.4 3.531 0.139
15:29 1011 29.85 840 24.81 3.1 37.7 47 -7 19.4 3.554 0.14
15:30 1011 29.85 840 24.81 3.1 37.6 49 -6.5 20.2 3.52 0.139
15:31 1011 29.85 840 24.81 3.1 37.6 47 -7.1 19.1 3.582 0.141
15:32 1011 29.85 840 24.81 3.2 37.7 47 -7 19.4 3.593 0.141
15:33 1011 29.85 840 24.81 3.3 37.9 45 -7.5 18.4 3.639 0.143
15:34 1011 29.85 840 24.81 3.2 37.8 46 -7.4 18.6 3.639 0.143
15:35 1011 29.85 840 24.81 3.2 37.8 47 -7 19.4 3.667 0.144
15:36 1011 29.85 840 24.81 3.3 37.9 47 -7.1 19.2 3.724 0.147
15:37 1011 29.85 840 24.81 3.3 38 46 -7.2 19.1 3.763 0.148
15:38 1011 29.85 840 24.81 3.3 38 47 -7 19.4 3.758 0.148
15:39 1011 29.85 840 24.81 3.3 37.9 44 -7.8 17.9 3.707 0.146
15:40 1011 29.85 840 24.81 3.3 37.9 46 -7.3 18.8 3.707 0.146
15:41 1011 29.85 840 24.81 3.3 37.9 46 -7.4 18.8 3.65 0.144
15:42 1011 29.85 840 24.81 3.3 37.9 47 -6.8 19.7 3.729 0.147
15:43 1011 29.85 840 24.81 3.3 37.9 47 -7 19.4 3.69 0.145
15:44 1011 29.85 840 24.81 3.3 37.9 48 -6.6 20.1 3.684 0.145
15:45 1011 29.85 840 24.81 3.3 37.9 46 -7.2 19 3.628 0.143
15:46 1011 29.85 840 24.81 3.3 37.9 47 -7.1 19.3 3.678 0.145
15:47 1011 29.85 840 24.81 3.3 37.9 49 -6.5 20.2 3.639 0.143
15:48 1011 29.85 840 24.81 3.2 37.7 47 -7.1 19.2 3.645 0.144
15:49 1011 29.85 840 24.81 3.2 37.8 47 -7 19.4 3.628 0.143
15:50 1011 29.85 840 24.81 3.2 37.8 45 -7.4 18.6 3.656 0.144
15:51 1011 29.85 840 24.81 3.2 37.8 46 -7.3 18.9 3.639 0.143
15:52 1011 29.85 840 24.81 3.2 37.8 46 -7.2 19 3.633 0.143
15:53 1011 29.85 840 24.81 3.3 37.9 46 -7.3 18.8 3.712 0.146
15:54 1011 29.85 840 24.81 3.3 38 45 -7.4 18.6 3.718 0.146
15:55 1011 29.85 840 24.81 3.3 38 44 -7.8 18 3.746 0.147
15:56 1011 29.85 840 24.81 3.3 38 46 -7.3 18.9 3.729 0.147
15:57 1011 29.85 840 24.81 3.3 37.9 46 -7.4 18.7 3.673 0.145
15:58 1011 29.85 840 24.81 3.2 37.8 45 -7.6 18.3 3.639 0.143
15:59 1011 29.85 840 24.81 3.2 37.7 44 -8 17.6 3.628 0.143
16:00 1011 29.85 840 24.81 3.2 37.8 46 -7.3 18.9 3.594 0.141
16:01 1011 29.85 840 24.81 3.1 37.7 47 -7 19.4 3.611 0.142
16:02 1011 29.85 840 24.81 3.1 37.6 44 -7.9 17.9 3.548 0.14
16:03 1011 29.85 840 24.81 3.1 37.5 45 -7.6 18.3 3.48 0.137
16:04 1011 29.85 840 24.81 3 37.5 46 -7.5 18.6 3.458 0.136
16:05 1011 29.85 840 24.81 3 37.3 46 -7.6 18.3 3.401 0.134
16:06 1011 29.85 840 24.81 2.9 37.3 49 -6.9 19.6 3.35 0.132
16:07 1011 29.85 841 24.83 2.9 37.1 49 -6.7 19.9 3.277 0.129
16:08 1011 29.85 841 24.83 2.8 37 49 -7 19.4 3.164 0.125
16:09 1011 29.85 841 24.83 2.6 36.8 49 -7 19.4 3.067 0.121
16:10 1011 29.85 841 24.83 2.6 36.6 48 -7.3 18.9 3.016 0.119
16:11 1011 29.85 841 24.83 2.6 36.6 49 -7 19.4 2.977 0.117
16:12 1011 29.85 841 24.83 2.6 36.6 51 -6.6 20 2.999 0.118
16:13 1011 29.85 841 24.83 2.6 36.7 50 -6.9 19.6 3.045 0.12
16:14 1011 29.85 841 24.83 2.6 36.8 49 -7 19.5 3.073 0.121
16:15 1011 29.85 841 24.83 2.7 36.9 50 -6.8 19.8 3.135 0.123
16:16 1011 29.85 841 24.83 2.8 37 50 -6.8 19.8 3.164 0.125
16:17 1011 29.85 841 24.83 2.8 37.1 50 -6.7 19.9 3.231 0.127
16:18 1011 29.85 841 24.83 2.9 37.1 48 -7.1 19.3 3.282 0.129
16:19 1011 29.85 841 24.83 2.9 37.3 48 -7.1 19.3 3.35 0.132
16:20 1011 29.85 841 24.83 2.9 37.3 49 -6.8 19.7 3.356 0.132
16:21 1011 29.85 841 24.83 3 37.3 49 -6.8 19.7 3.356 0.132
16:22 1011 29.85 841 24.83 3 37.4 48 -7.1 19.2 3.424 0.135
16:23 1011 29.85 841 24.83 3.1 37.5 47 -7.1 19.2 3.463 0.136
16:24 1011 29.85 841 24.83 3 37.5 48 -6.8 19.7 3.497 0.138
16:25 1011 29.85 841 24.83 3.1 37.6 46 -7.3 18.8 3.48 0.137
16:26 1011 29.85 841 24.83 3 37.4 49 -6.7 20 3.458 0.136
16:27 1011 29.85 841 24.83 3 37.4 50 -6.5 20.3 3.418 0.135
16:28 1012 29.88 841 24.83 3 37.3 49 -6.8 19.7 3.401 0.134
16:29 1012 29.88 841 24.83 2.9 37.3 49 -6.6 20.1 3.367 0.133
16:30 1012 29.88 841 24.83 2.9 37.1 50 -6.6 20.1 3.254 0.128
16:31 1012 29.88 841 24.83 2.7 36.9 50 -6.6 20.2 3.175 0.125
16:32 1012 29.88 841 24.83 2.7 36.8 51 -6.4 20.6 3.107 0.122
16:33 1012 29.88 841 24.83 2.7 36.8 50 -6.7 19.9 3.118 0.123
16:34 1012 29.88 841 24.83 2.7 36.8 49 -7 19.4 3.118 0.123
16:35 1012 29.88 841 24.83 2.8 37 50 -6.8 19.8 3.147 0.124